Time;durP1;ratioP1;P1;durP2;ratioP2;P2;SDS_P1;SDS_P2;PMS_P1;PMS_P2;Temp;Humidity;BMP_temperature;BMP_pressure;BME280_temperature;BME280_humidity;BME280_pressure;Samples;Min_cycle;Max_cycle;Signal;HPM_P1;HPM_P2
2021/05/21 00:01:12;;;;;;;;;;;;;;;20.02;41.89;99831.03;2213972;39;115270;-54
2021/05/21 00:02:44;;;;;;;;;;;;;;;20.04;41.35;99830.66;2215324;39;114466;-54
2021/05/21 00:04:15;;;;;;;;;;;;;;;20.05;41.99;99840.72;2212796;39;115470;-54
2021/05/21 00:05:47;;;;;;;;;;;;;;;20.02;41.81;99825.41;2214502;39;115027;-54
2021/05/21 00:07:35;;;;;;;;;;;;;;;19.98;41.70;99825.25;2214238;39;113977;-56
2021/05/21 00:09:10;;;;;;;;;;;;;;;19.96;41.46;99821.94;2213761;39;114624;-55
2021/05/21 00:10:42;;;;;;;;;;;;;;;19.97;41.89;99805.97;2215234;39;114757;-55
2021/05/21 00:12:15;;;;;;;;;;;;;;;19.98;41.70;99822.44;2215633;39;115353;-55
2021/05/21 00:13:46;;;;;;;;;;;;;;;19.95;41.58;99797.88;2218664;39;114920;-55
2021/05/21 00:15:18;;;;;;;;;;;;;;;19.97;42.01;99805.97;2209511;39;115956;-55
2021/05/21 00:16:50;;;;;;;;;;;;;;;19.95;41.85;99797.03;2214913;39;114862;-55
2021/05/21 00:18:22;;;;;;;;;;;;;;;19.94;41.88;99799.00;2215698;39;115824;-55
2021/05/21 00:19:53;;;;;;;;;;;;;;;19.93;41.76;99783.38;2217654;39;115670;-55
2021/05/21 00:21:25;;;;;;;;;;;;;;;19.93;42.08;99793.75;2210312;39;116329;-55
2021/05/21 00:22:57;;;;;;;;;;;;;;;19.92;42.04;99803.31;2208150;39;114527;-55
2021/05/21 00:24:28;;;;;;;;;;;;;;;19.92;42.31;99787.31;2215135;39;115805;-55
2021/05/21 00:26:00;;;;;;;;;;;;;;;19.90;42.08;99800.00;2216284;39;116107;-55
2021/05/21 00:27:32;;;;;;;;;;;;;;;19.90;42.10;99770.00;2216531;39;115868;-55
2021/05/21 00:29:03;;;;;;;;;;;;;;;19.91;42.36;99784.84;2216544;39;115084;-55
2021/05/21 00:30:35;;;;;;;;;;;;;;;19.91;42.11;99779.25;2211020;39;115884;-55
2021/05/21 00:32:07;;;;;;;;;;;;;;;19.89;42.02;99782.41;2216009;39;115504;-55
2021/05/21 00:33:38;;;;;;;;;;;;;;;19.89;42.12;99770.34;2208647;39;114287;-55
2021/05/21 00:35:10;;;;;;;;;;;;;;;19.88;42.23;99763.91;2215921;39;114541;-55
2021/05/21 00:36:42;;;;;;;;;;;;;;;19.88;42.49;99771.50;2213626;39;113779;-55
2021/05/21 00:38:14;;;;;;;;;;;;;;;19.87;42.35;99765.06;2218097;39;113849;-55
2021/05/21 00:39:45;;;;;;;;;;;;;;;19.87;42.32;99762.28;2210563;39;116021;-55
2021/05/21 00:41:21;;;;;;;;;;;;;;;19.85;42.46;99753.34;2215373;39;114193;-55
2021/05/21 00:42:53;;;;;;;;;;;;;;;19.83;42.18;99763.28;2209759;39;113829;-55
2021/05/21 00:44:24;;;;;;;;;;;;;;;19.83;42.22;99740.84;2211144;39;114255;-55
2021/05/21 00:45:56;;;;;;;;;;;;;;;19.83;42.14;99772.50;2213565;39;114189;-56
2021/05/21 00:47:29;;;;;;;;;;;;;;;19.83;42.37;99763.28;2215949;39;113687;-55
2021/05/21 00:49:01;;;;;;;;;;;;;;;19.82;41.84;99768.03;2213495;39;113658;-55
2021/05/21 00:50:32;;;;;;;;;;;;;;;19.81;41.79;99760.78;2216060;39;113772;-55
2021/05/21 00:52:05;;;;;;;;;;;;;;;19.81;42.64;99768.38;2209968;39;114715;-54
2021/05/21 00:53:37;;;;;;;;;;;;;;;19.79;42.13;99754.72;2215476;39;113778;-54
2021/05/21 00:55:10;;;;;;;;;;;;;;;19.79;42.56;99765.09;2210371;39;114276;-55
2021/05/21 00:56:42;;;;;;;;;;;;;;;19.81;42.23;99765.56;2218433;39;113704;-55
2021/05/21 00:58:14;;;;;;;;;;;;;;;19.81;42.35;99759.97;2216963;39;115416;-54
2021/05/21 00:59:45;;;;;;;;;;;;;;;19.76;42.82;99766.56;2216173;39;116102;-54
2021/05/21 01:01:17;;;;;;;;;;;;;;;19.77;42.35;99751.41;2216716;39;115010;-54
2021/05/21 01:02:49;;;;;;;;;;;;;;;19.76;42.33;99751.75;2217713;39;114719;-55
2021/05/21 01:04:20;;;;;;;;;;;;;;;19.75;42.81;99752.91;2214248;39;114864;-54
2021/05/21 01:05:52;;;;;;;;;;;;;;;19.72;42.84;99754.38;2206182;39;114994;-54
2021/05/21 01:07:24;;;;;;;;;;;;;;;19.74;42.69;99740.03;2213543;39;114550;-54
2021/05/21 01:08:56;;;;;;;;;;;;;;;19.73;43.00;99744.00;2208108;39;114296;-54
2021/05/21 01:10:28;;;;;;;;;;;;;;;19.72;43.27;99734.75;2204759;39;115493;-55
2021/05/21 01:12:00;;;;;;;;;;;;;;;19.72;42.89;99729.16;2201452;39;115083;-55
2021/05/21 01:13:32;;;;;;;;;;;;;;;19.73;43.16;99722.41;2205717;39;114883;-55
2021/05/21 01:15:03;;;;;;;;;;;;;;;19.75;42.96;99730.47;2213648;39;114874;-55
2021/05/21 01:16:35;;;;;;;;;;;;;;;19.71;43.30;99713.50;2215155;39;114400;-55
2021/05/21 01:18:08;;;;;;;;;;;;;;;19.71;43.12;99713.50;2217152;39;116494;-59
2021/05/21 01:19:39;;;;;;;;;;;;;;;19.71;42.96;99713.50;2214021;39;115527;-55
2021/05/21 01:21:12;;;;;;;;;;;;;;;19.72;43.23;99720.75;2212459;39;114246;-55
2021/05/21 01:22:43;;;;;;;;;;;;;;;19.70;42.85;99723.06;2209943;39;116009;-55
2021/05/21 01:24:15;;;;;;;;;;;;;;;19.68;43.21;99699.31;2215412;39;116242;-55
2021/05/21 01:25:47;;;;;;;;;;;;;;;19.68;42.80;99702.94;2205513;39;115585;-55
2021/05/21 01:27:18;;;;;;;;;;;;;;;19.66;42.67;99710.88;2211075;39;115410;-55
2021/05/21 01:28:51;;;;;;;;;;;;;;;19.65;42.86;99711.22;2213172;39;116003;-55
2021/05/21 01:30:23;;;;;;;;;;;;;;;19.68;42.69;99690.91;2217324;39;114970;-55
2021/05/21 01:31:55;;;;;;;;;;;;;;;19.65;43.01;99689.63;2215993;39;115580;-55
2021/05/21 01:33:27;;;;;;;;;;;;;;;19.63;43.02;99686.31;2214547;39;116116;-55
2021/05/21 01:34:59;;;;;;;;;;;;;;;19.61;42.80;99677.44;2214640;39;115761;-55
2021/05/21 01:36:30;;;;;;;;;;;;;;;19.61;42.81;99691.44;2214367;39;115633;-55
2021/05/21 01:38:02;;;;;;;;;;;;;;;19.64;42.73;99687.97;2210729;39;115654;-55
2021/05/21 01:39:34;;;;;;;;;;;;;;;19.61;42.68;99699.03;2215549;39;115937;-55
2021/05/21 01:41:06;;;;;;;;;;;;;;;19.60;42.61;99695.41;2212337;39;115179;-54
2021/05/21 01:42:38;;;;;;;;;;;;;;;19.60;42.62;99680.56;2215168;39;113803;-55
2021/05/21 01:44:10;;;;;;;;;;;;;;;19.59;42.87;99687.31;2209773;39;114069;-54
2021/05/21 01:45:42;;;;;;;;;;;;;;;19.59;42.73;99690.94;2208437;39;114334;-55
2021/05/21 01:47:13;;;;;;;;;;;;;;;19.61;42.27;99697.03;2214820;39;113704;-55
2021/05/21 01:48:46;;;;;;;;;;;;;;;19.65;42.60;99694.41;2212592;39;113807;-54
2021/05/21 01:50:17;;;;;;;;;;;;;;;19.61;42.37;99707.44;2216185;39;113665;-55
2021/05/21 01:51:53;;;;;;;;;;;;;;;19.58;42.29;99702.50;2204331;39;113926;-54
2021/05/21 01:53:26;;;;;;;;;;;;;;;19.58;42.94;99694.88;2215530;39;114190;-54
2021/05/21 01:54:57;;;;;;;;;;;;;;;19.58;42.49;99666.88;2216719;39;113830;-54
2021/05/21 01:56:29;;;;;;;;;;;;;;;19.58;42.77;99677.28;2209003;39;113740;-54
2021/05/21 01:58:01;;;;;;;;;;;;;;;19.58;42.47;99689.28;2211771;39;114041;-55
2021/05/21 01:59:33;;;;;;;;;;;;;;;19.58;42.44;99674.47;2205717;39;113891;-55
2021/05/21 02:01:04;;;;;;;;;;;;;;;19.59;42.28;99681.72;2203585;39;113785;-54
2021/05/21 02:02:36;;;;;;;;;;;;;;;19.61;42.53;99690.63;2208688;39;113703;-55
2021/05/21 02:04:08;;;;;;;;;;;;;;;19.59;42.21;99681.72;2214261;39;114979;-55
2021/05/21 02:05:39;;;;;;;;;;;;;;;19.59;42.33;99674.13;2212609;39;114259;-55
2021/05/21 02:07:12;;;;;;;;;;;;;;;19.58;42.69;99683.69;2214382;39;114972;-55
2021/05/21 02:08:44;;;;;;;;;;;;;;;19.57;42.35;99684.03;2206708;39;115425;-54
2021/05/21 02:10:16;;;;;;;;;;;;;;;19.57;42.24;99675.63;2204006;39;114771;-54
2021/05/21 02:11:47;;;;;;;;;;;;;;;19.56;42.57;99669.19;2211055;39;115447;-54
2021/05/21 02:13:19;;;;;;;;;;;;;;;19.54;42.65;99672.31;2212140;39;114216;-55
2021/05/21 02:14:51;;;;;;;;;;;;;;;19.55;42.64;99673.16;2212161;39;115620;-55
2021/05/21 02:16:23;;;;;;;;;;;;;;;19.53;42.68;99672.69;2212925;39;114968;-54
2021/05/21 02:17:55;;;;;;;;;;;;;;;19.53;42.20;99662.28;2215090;39;115837;-54
2021/05/21 02:19:26;;;;;;;;;;;;;;;19.50;42.83;99673.31;2215593;39;115376;-57
2021/05/21 02:20:58;;;;;;;;;;;;;;;19.51;42.71;99677.78;2207328;39;115444;-54
2021/05/21 02:22:30;;;;;;;;;;;;;;;19.52;42.26;99662.63;2211632;39;114786;-54
2021/05/21 02:24:04;;;;;;;;;;;;;;;19.51;42.60;99658.16;2207931;39;114970;-55
2021/05/21 02:25:35;;;;;;;;;;;;;;;19.52;42.58;99660.66;2204394;39;115068;-54
2021/05/21 02:27:07;;;;;;;;;;;;;;;19.53;42.60;99658.69;2205411;39;114729;-54
2021/05/21 02:28:39;;;;;;;;;;;;;;;19.50;42.56;99656.53;2215730;39;115924;-54
2021/05/21 02:30:11;;;;;;;;;;;;;;;19.49;42.23;99640.84;2213866;39;115561;-55
2021/05/21 02:31:43;;;;;;;;;;;;;;;19.49;42.26;99650.09;2214239;39;116307;-55
2021/05/21 02:33:14;;;;;;;;;;;;;;;19.48;42.55;99659.66;2217293;39;116070;-55
2021/05/21 02:34:46;;;;;;;;;;;;;;;19.46;42.24;99661.16;2212319;39;114604;-55
2021/05/21 02:36:18;;;;;;;;;;;;;;;19.48;42.50;99664.44;2215199;39;115919;-54
2021/05/21 02:37:50;;;;;;;;;;;;;;;19.47;42.55;99671.19;2213903;39;115607;-55
2021/05/21 02:39:24;;;;;;;;;;;;;;;19.49;42.35;99666.91;2201554;39;116072;-54
2021/05/21 02:40:56;;;;;;;;;;;;;;;19.50;42.28;99664.91;2212002;39;115600;-54
2021/05/21 02:42:27;;;;;;;;;;;;;;;19.48;42.78;99659.66;2217140;39;115115;-54
2021/05/21 02:44:00;;;;;;;;;;;;;;;19.45;42.31;99656.69;2214298;39;115536;-54
2021/05/21 02:45:31;;;;;;;;;;;;;;;19.46;42.44;99656.38;2219420;39;115530;-54
2021/05/21 02:47:03;;;;;;;;;;;;;;;19.45;42.57;99663.13;2216314;39;113752;-55
2021/05/21 02:48:34;;;;;;;;;;;;;;;19.47;42.51;99660.00;2205008;39;113982;-55
2021/05/21 02:50:07;;;;;;;;;;;;;;;19.45;42.41;99671.53;2213821;39;114065;-55
2021/05/21 02:51:38;;;;;;;;;;;;;;;19.49;42.17;99646.47;2216508;39;113839;-55
2021/05/21 02:53:10;;;;;;;;;;;;;;;19.46;42.42;99649.94;2208903;39;113887;-55
2021/05/21 02:54:41;;;;;;;;;;;;;;;19.48;42.40;99656.03;2212718;39;113721;-55
2021/05/21 02:56:13;;;;;;;;;;;;;;;19.42;42.58;99644.16;2216899;39;114760;-55
2021/05/21 02:57:45;;;;;;;;;;;;;;;19.44;42.58;99641.84;2209508;39;115200;-55
2021/05/21 02:59:16;;;;;;;;;;;;;;;19.45;42.64;99642.69;2201107;39;113886;-55
2021/05/21 03:00:48;;;;;;;;;;;;;;;19.44;42.71;99638.25;2204916;39;113876;-55
2021/05/21 03:02:20;;;;;;;;;;;;;;;19.43;42.39;99619.78;2206611;39;114104;-55
2021/05/21 03:03:51;;;;;;;;;;;;;;;19.43;42.43;99639.38;2209791;39;113831;-54
2021/05/21 03:05:23;;;;;;;;;;;;;;;19.43;42.42;99623.44;2212865;39;114053;-55
2021/05/21 03:06:54;;;;;;;;;;;;;;;19.42;42.52;99624.53;2208496;39;113756;-55
2021/05/21 03:08:26;;;;;;;;;;;;;;;19.43;42.51;99619.78;2213118;39;114407;-56
2021/05/21 03:09:58;;;;;;;;;;;;;;;19.42;42.42;99629.31;2215341;39;115367;-55
2021/05/21 03:11:30;;;;;;;;;;;;;;;19.44;42.47;99618.66;2209880;39;115162;-55
2021/05/21 03:13:01;;;;;;;;;;;;;;;19.40;42.75;99621.25;2212057;39;115517;-55
2021/05/21 03:14:33;;;;;;;;;;;;;;;19.43;42.38;99628.16;2215768;39;113897;-55
2021/05/21 03:16:04;;;;;;;;;;;;;;;19.38;42.89;99631.16;2214032;39;114856;-55
2021/05/21 03:17:36;;;;;;;;;;;;;;;19.38;42.68;99609.56;2211937;39;115849;-55
2021/05/21 03:19:07;;;;;;;;;;;;;;;19.40;42.64;99609.22;2205538;39;114844;-55
2021/05/21 03:20:40;;;;;;;;;;;;;;;19.42;42.16;99604.94;2210618;39;114630;-54
2021/05/21 03:22:11;;;;;;;;;;;;;;;19.43;42.27;99598.22;2203822;39;115122;-54
2021/05/21 03:23:43;;;;;;;;;;;;;;;19.40;42.44;99604.44;2211894;39;115248;-55
2021/05/21 03:25:15;;;;;;;;;;;;;;;19.40;42.62;99587.63;2215378;39;114793;-54
2021/05/21 03:26:46;;;;;;;;;;;;;;;19.36;42.46;99588.63;2216167;39;115105;-56
2021/05/21 03:28:18;;;;;;;;;;;;;;;19.37;42.31;99590.28;2216509;39;115000;-55
2021/05/21 03:29:50;;;;;;;;;;;;;;;19.37;42.38;99593.09;2204847;39;114820;-54
2021/05/21 03:31:21;;;;;;;;;;;;;;;19.34;42.47;99574.97;2208268;39;115764;-54
2021/05/21 03:32:53;;;;;;;;;;;;;;;19.36;42.45;99583.84;2214778;39;114623;-54
2021/05/21 03:34:25;;;;;;;;;;;;;;;19.36;42.28;99594.22;2203749;39;115463;-54
2021/05/21 03:35:56;;;;;;;;;;;;;;;19.34;42.34;99580.59;2212332;39;115568;-55
2021/05/21 03:37:28;;;;;;;;;;;;;;;19.33;42.21;99586.50;2216250;39;116063;-54
2021/05/21 03:38:59;;;;;;;;;;;;;;;19.34;42.17;99590.97;2206088;39;116539;-55
2021/05/21 03:40:32;;;;;;;;;;;;;;;19.33;42.34;99595.75;2207251;39;116011;-55
2021/05/21 03:42:04;;;;;;;;;;;;;;;19.32;42.61;99584.84;2209265;39;114922;-54
2021/05/21 03:43:36;;;;;;;;;;;;;;;19.30;42.50;99585.22;2213681;39;114837;-55
2021/05/21 03:45:08;;;;;;;;;;;;;;;19.29;42.36;99572.34;2213846;39;115598;-54
2021/05/21 03:46:40;;;;;;;;;;;;;;;19.33;42.45;99578.09;2209261;39;114640;-55
2021/05/21 03:48:12;;;;;;;;;;;;;;;19.34;42.57;99579.75;2214370;39;116254;-54
2021/05/21 03:49:44;;;;;;;;;;;;;;;19.34;42.19;99576.97;2217068;39;115448;-55
2021/05/21 03:51:15;;;;;;;;;;;;;;;19.34;42.56;99571.34;2218136;39;116342;-55
2021/05/21 03:52:47;;;;;;;;;;;;;;;19.30;42.67;99567.59;2203132;39;114219;-54
2021/05/21 03:54:19;;;;;;;;;;;;;;;19.28;42.63;99569.88;2205546;39;114088;-56
2021/05/21 03:55:51;;;;;;;;;;;;;;;19.28;42.40;99562.31;2214928;39;113839;-55
2021/05/21 03:57:22;;;;;;;;;;;;;;;19.28;42.56;99573.50;2209366;39;113866;-55
2021/05/21 03:58:56;;;;;;;;;;;;;;;19.28;42.58;99569.88;2214115;39;113796;-57
2021/05/21 04:00:28;;;;;;;;;;;;;;;19.27;42.45;99554.22;2210783;39;113662;-55
2021/05/21 04:01:59;;;;;;;;;;;;;;;19.25;42.47;99548.16;2211012;39;113940;-54
2021/05/21 04:03:31;;;;;;;;;;;;;;;19.25;42.74;99540.59;2214742;39;113935;-55
2021/05/21 04:05:03;;;;;;;;;;;;;;;19.24;42.84;99552.09;2210980;39;113831;-55
2021/05/21 04:06:34;;;;;;;;;;;;;;;19.22;42.87;99554.41;2207850;39;113772;-54
2021/05/21 04:08:06;;;;;;;;;;;;;;;19.22;42.82;99549.63;2206029;39;114157;-54
2021/05/21 04:09:38;;;;;;;;;;;;;;;19.21;42.70;99559.22;2208683;39;113849;-54
2021/05/21 04:11:09;;;;;;;;;;;;;;;19.21;42.65;99553.63;2210732;39;113797;-55
2021/05/21 04:12:41;;;;;;;;;;;;;;;19.18;42.78;99543.06;2217328;39;113946;-54
2021/05/21 04:14:13;;;;;;;;;;;;;;;19.19;42.79;99533.50;2209190;39;114840;-54
2021/05/21 04:15:44;;;;;;;;;;;;;;;19.19;42.59;99552.28;2209834;39;114895;-57
2021/05/21 04:17:16;;;;;;;;;;;;;;;19.17;42.55;99541.41;2208687;39;114340;-54
2021/05/21 04:18:47;;;;;;;;;;;;;;;19.17;42.70;99546.22;2209066;39;115184;-54
2021/05/21 04:20:19;;;;;;;;;;;;;;;19.15;42.86;99529.75;2202615;39;114951;-55
2021/05/21 04:21:52;;;;;;;;;;;;;;;19.14;42.92;99539.28;2212748;39;114027;-55
2021/05/21 04:23:24;;;;;;;;;;;;;;;19.14;42.85;99542.09;2216196;39;115416;-54
2021/05/21 04:24:55;;;;;;;;;;;;;;;19.13;43.76;99539.59;2203361;39;114980;-55
2021/05/21 04:26:27;;;;;;;;;;;;;;;19.15;43.39;99534.50;2205172;39;115094;-55
2021/05/21 04:27:59;;;;;;;;;;;;;;;19.13;43.19;99525.59;2213739;39;115124;-54
2021/05/21 04:29:30;;;;;;;;;;;;;;;19.14;43.45;99535.66;2203560;39;114802;-55
2021/05/21 04:31:02;;;;;;;;;;;;;;;19.15;43.04;99523.31;2208141;39;114049;-55
2021/05/21 04:32:34;;;;;;;;;;;;;;;19.13;43.26;99526.44;2209944;39;114823;-55
2021/05/21 04:34:05;;;;;;;;;;;;;;;19.12;43.03;99524.00;2204244;39;114974;-55
2021/05/21 04:35:37;;;;;;;;;;;;;;;19.13;43.06;99518.03;2208529;39;116040;-55
2021/05/21 04:37:09;;;;;;;;;;;;;;;19.10;43.35;99508.34;2210436;39;115827;-54
2021/05/21 04:38:41;;;;;;;;;;;;;;;19.07;43.46;99525.00;2204848;39;115951;-55
2021/05/21 04:40:13;;;;;;;;;;;;;;;19.10;43.16;99516.75;2203709;39;114733;-54
2021/05/21 04:41:47;;;;;;;;;;;;;;;19.09;43.20;99511.47;2210383;39;115035;-55
2021/05/21 04:43:22;;;;;;;;;;;;;;;19.10;43.48;99522.34;2216883;39;115540;-54
2021/05/21 04:44:54;;;;;;;;;;;;;;;19.07;43.62;99495.03;2215927;39;115597;-54
2021/05/21 04:46:25;;;;;;;;;;;;;;;19.05;43.58;99510.50;2215158;39;115679;-54
2021/05/21 04:47:57;;;;;;;;;;;;;;;19.05;43.42;99518.88;2215878;39;115704;-55
2021/05/21 04:49:32;;;;;;;;;;;;;;;19.05;43.41;99516.09;2216706;39;115888;-54
2021/05/21 04:51:04;;;;;;;;;;;;;;;19.04;43.48;99504.06;2215380;39;115848;-55
2021/05/21 04:52:35;;;;;;;;;;;;;;;19.03;43.40;99499.63;2214323;39;115896;-55
2021/05/21 04:54:07;;;;;;;;;;;;;;;19.04;43.57;99504.06;2205286;39;115075;-55
2021/05/21 04:55:40;;;;;;;;;;;;;;;19.03;43.65;99513.63;2209588;39;114759;-55
2021/05/21 04:57:12;;;;;;;;;;;;;;;19.03;43.34;99512.81;2211739;39;115923;-55
2021/05/21 04:58:44;;;;;;;;;;;;;;;19.03;43.22;99504.41;2209077;39;113794;-55
2021/05/21 05:00:17;;;;;;;;;;;;;;;19.02;43.34;99519.56;2198203;39;113655;-55
2021/05/21 05:01:48;;;;;;;;;;;;;;;19.01;43.44;99515.13;2208315;39;114184;-55
2021/05/21 05:03:21;;;;;;;;;;;;;;;19.01;43.61;99498.31;2216205;39;113794;-55
2021/05/21 05:04:53;;;;;;;;;;;;;;;19.00;43.80;99503.09;2217056;39;113670;-55
2021/05/21 05:06:24;;;;;;;;;;;;;;;19.01;44.36;99507.53;2208458;39;113836;-55
2021/05/21 05:07:56;;;;;;;;;;;;;;;19.04;44.37;99497.66;2214166;39;116349;-55
2021/05/21 05:09:28;;;;;;;;;;;;;;;19.03;44.33;99505.22;2217432;39;113793;-55
2021/05/21 05:10:59;;;;;;;;;;;;;;;19.08;44.22;99516.25;2216799;39;113761;-55
2021/05/21 05:12:31;;;;;;;;;;;;;;;19.10;44.13;99508.34;2217158;39;113768;-56
2021/05/21 05:14:03;;;;;;;;;;;;;;;19.18;44.08;99497.44;2217853;39;113839;-55
2021/05/21 05:15:35;;;;;;;;;;;;;;;19.22;44.29;99495.59;2217133;39;113663;-55
2021/05/21 05:17:07;;;;;;;;;;;;;;;19.25;44.56;99498.59;2212409;39;114237;-54
2021/05/21 05:18:39;;;;;;;;;;;;;;;19.29;44.35;99498.72;2220055;39;113779;-54
2021/05/21 05:20:11;;;;;;;;;;;;;;;19.32;44.25;99498.88;2213329;39;115193;-55
2021/05/21 05:21:43;;;;;;;;;;;;;;;19.38;44.10;99497.53;2207475;39;113920;-55
2021/05/21 05:23:16;;;;;;;;;;;;;;;19.43;44.38;99485.31;2205801;39;114831;-54
2021/05/21 05:24:48;;;;;;;;;;;;;;;19.46;44.38;99487.47;2210378;39;113861;-54
2021/05/21 05:26:19;;;;;;;;;;;;;;;19.51;44.38;99493.72;2213180;39;114002;-54
2021/05/21 05:27:51;;;;;;;;;;;;;;;19.57;44.59;99499.13;2211068;39;113906;-56
2021/05/21 05:29:23;;;;;;;;;;;;;;;19.61;44.07;99498.13;2205393;39;115166;-56
2021/05/21 05:30:54;;;;;;;;;;;;;;;19.66;44.34;99480.28;2213660;39;114429;-54
2021/05/21 05:32:26;;;;;;;;;;;;;;;19.72;43.88;99490.13;2209480;39;114360;-55
2021/05/21 05:33:59;;;;;;;;;;;;;;;19.77;44.48;99499.16;2215277;39;114918;-54
2021/05/21 05:35:30;;;;;;;;;;;;;;;19.81;44.21;99497.31;2210624;39;114847;-54
2021/05/21 05:37:02;;;;;;;;;;;;;;;19.86;44.37;99490.72;2215281;39;114895;-54
2021/05/21 05:38:34;;;;;;;;;;;;;;;19.92;44.20;99501.41;2213035;39;114882;-53
2021/05/21 05:40:06;;;;;;;;;;;;;;;19.98;43.79;99488.84;2219740;39;115309;-54
2021/05/21 05:41:38;;;;;;;;;;;;;;;20.03;43.94;99493.41;2217461;39;115503;-56
2021/05/21 05:43:10;;;;;;;;;;;;;;;20.09;43.82;99492.03;2206450;39;115543;-54
2021/05/21 05:44:41;;;;;;;;;;;;;;;20.13;43.62;99492.16;2214484;39;115702;-55
2021/05/21 05:46:13;;;;;;;;;;;;;;;20.18;43.42;99498.41;2214808;39;115923;-54
2021/05/21 05:47:44;;;;;;;;;;;;;;;20.21;43.38;99500.53;2212471;39;116012;-54
2021/05/21 05:49:16;;;;;;;;;;;;;;;20.26;43.75;99479.88;2216188;39;115595;-54
2021/05/21 05:50:51;;;;;;;;;;;;;;;20.31;43.53;99490.91;2217013;39;114649;-55
2021/05/21 05:52:22;;;;;;;;;;;;;;;20.34;43.42;99498.66;2209991;39;115936;-54
2021/05/21 05:53:54;;;;;;;;;;;;;;;20.40;43.17;99494.47;2215031;39;115408;-54
2021/05/21 05:55:26;;;;;;;;;;;;;;;20.42;43.13;99480.94;2211513;39;115533;-54
2021/05/21 05:56:58;;;;;;;;;;;;;;;20.47;43.11;99488.31;2216930;39;115746;-54
2021/05/21 05:58:29;;;;;;;;;;;;;;;20.50;43.00;99480.00;2215993;39;115592;-54
2021/05/21 06:00:01;;;;;;;;;;;;;;;20.54;42.70;99495.00;2217657;39;116233;-54
2021/05/21 06:01:33;;;;;;;;;;;;;;;20.57;43.15;99485.91;2218244;39;115699;-54
2021/05/21 06:03:05;;;;;;;;;;;;;;;20.61;42.66;99472.81;2208563;39;114587;-54
2021/05/21 06:04:37;;;;;;;;;;;;;;;20.65;42.69;99472.94;2207727;39;113916;-54
2021/05/21 06:06:08;;;;;;;;;;;;;;;20.67;42.82;99477.03;2214487;39;113910;-54
2021/05/21 06:08:01;;;;;;;;;;;;;;;20.72;42.51;99502.09;2217349;39;113887;-54
2021/05/21 06:09:32;;;;;;;;;;;;;;;20.75;42.02;99478.97;2217336;39;114086;-54
2021/05/21 06:11:04;;;;;;;;;;;;;;;20.77;41.96;99465.38;2216427;39;113773;-54
2021/05/21 06:12:35;;;;;;;;;;;;;;;20.81;42.36;99466.34;2213783;39;114771;-54
2021/05/21 06:14:07;;;;;;;;;;;;;;;20.84;41.98;99473.25;2217437;39;114174;-54
2021/05/21 06:15:39;;;;;;;;;;;;;;;20.87;41.99;99455.72;2217248;39;114106;-54
2021/05/21 06:17:11;;;;;;;;;;;;;;;20.90;42.18;99440.16;2209510;39;114752;-54
2021/05/21 06:18:43;;;;;;;;;;;;;;;20.94;42.51;99472.00;2211607;39;114123;-55
2021/05/21 06:20:14;;;;;;;;;;;;;;;20.96;41.94;99452.81;2212939;39;113907;-55
2021/05/21 06:21:46;;;;;;;;;;;;;;;21.00;42.09;99456.56;2212588;39;113983;-54
2021/05/21 06:23:17;;;;;;;;;;;;;;;21.04;42.16;99443.44;2212141;39;113650;-54
2021/05/21 06:24:51;;;;;;;;;;;;;;;21.06;42.06;99469.22;2215398;39;113706;-54
2021/05/21 06:27:54;;;;;;;;;;;;;;;21.13;41.78;99455.44;2217796;39;114773;-54
2021/05/21 06:29:26;;;;;;;;;;;;;;;21.16;42.21;99438.72;2211894;39;114652;-56
2021/05/21 06:30:58;;;;;;;;;;;;;;;21.22;42.91;99445.72;2210527;39;114952;-54
2021/05/21 06:32:29;;;;;;;;;;;;;;;21.28;42.38;99447.16;2210803;39;114829;-54
2021/05/21 06:34:01;;;;;;;;;;;;;;;21.35;42.05;99459.81;2216661;39;114262;-54
2021/05/21 06:35:35;;;;;;;;;;;;;;;21.32;41.86;99452.06;2213792;39;115258;-54
2021/05/21 06:37:06;;;;;;;;;;;;;;;21.30;41.48;99449.63;2212578;39;115012;-54
2021/05/21 06:38:39;;;;;;;;;;;;;;;21.37;41.57;99449.03;2212324;39;116229;-54
2021/05/21 06:40:11;;;;;;;;;;;;;;;21.41;41.40;99455.59;2205821;39;114490;-54
2021/05/21 06:41:42;;;;;;;;;;;;;;;21.44;40.96;99466.94;2212645;39;114940;-54
2021/05/21 06:43:14;;;;;;;;;;;;;;;21.46;40.88;99436.50;2216602;39;115473;-54
2021/05/21 06:44:45;;;;;;;;;;;;;;;21.49;40.56;99441.41;2217536;39;114788;-54
2021/05/21 06:46:21;;;;;;;;;;;;;;;21.52;40.75;99439.91;2218564;39;114902;-54
2021/05/21 06:47:52;;;;;;;;;;;;;;;21.54;40.59;99449.59;2215897;39;116086;-53
2021/05/21 06:49:24;;;;;;;;;;;;;;;21.55;40.45;99442.81;2212719;39;115880;-54
2021/05/21 06:51:00;;;;;;;;;;;;;;;21.59;40.46;99445.75;2216906;39;115576;-54
2021/05/21 06:52:32;;;;;;;;;;;;;;;21.62;40.58;99470.34;2217196;39;115482;-54
2021/05/21 06:54:04;;;;;;;;;;;;;;;21.64;40.40;99443.53;2216308;39;114977;-54
2021/05/21 06:55:36;;;;;;;;;;;;;;;21.58;39.91;99444.09;2206010;39;115586;-54
2021/05/21 06:57:07;;;;;;;;;;;;;;;21.56;39.84;99438.84;2209487;39;115894;-54
2021/05/21 06:58:39;;;;;;;;;;;;;;;21.55;39.96;99440.00;2212286;39;117053;-55
2021/05/21 07:00:11;;;;;;;;;;;;;;;21.54;39.74;99432.75;2214179;39;115504;-54
2021/05/21 07:01:43;;;;;;;;;;;;;;;21.52;39.58;99429.50;2208631;39;114301;-54
2021/05/21 07:03:15;;;;;;;;;;;;;;;21.53;39.89;99445.16;2214238;39;115494;-54
2021/05/21 07:04:50;;;;;;;;;;;;;;;21.50;39.43;99433.81;2216223;39;115493;-54
2021/05/21 07:06:21;;;;;;;;;;;;;;;21.48;39.33;99430.53;2215455;39;114699;-54
2021/05/21 07:07:53;;;;;;;;;;;;;;;21.46;39.54;99433.69;2218786;39;115502;-54
2021/05/21 07:09:25;;;;;;;;;;;;;;;21.47;38.98;99429.72;2216490;39;113820;-54
2021/05/21 07:10:58;;;;;;;;;;;;;;;21.45;39.22;99453.72;2216922;39;113883;-54
2021/05/21 07:12:30;;;;;;;;;;;;;;;21.45;39.34;99445.28;2213960;39;114622;-54
2021/05/21 07:14:03;;;;;;;;;;;;;;;21.42;39.44;99427.16;2216843;39;113972;-55
2021/05/21 07:15:35;;;;;;;;;;;;;;;21.40;38.91;99409.81;2209625;39;114255;-54
2021/05/21 07:17:09;;;;;;;;;;;;;;;21.40;38.79;99414.59;2214273;39;113939;-54
2021/05/21 07:18:41;;;;;;;;;;;;;;;21.40;38.87;99411.78;2209155;39;113670;-54
2021/05/21 07:20:14;;;;;;;;;;;;;;;21.41;39.03;99400.22;2214240;39;113761;-54
2021/05/21 07:21:46;;;;;;;;;;;;;;;21.40;39.31;99423.84;2216335;39;114268;-54
2021/05/21 07:23:19;;;;;;;;;;;;;;;21.36;38.95;99408.88;2215772;39;113851;-54
2021/05/21 07:24:50;;;;;;;;;;;;;;;21.36;39.15;99417.28;2216780;39;113839;-54
2021/05/21 07:26:23;;;;;;;;;;;;;;;21.33;38.69;99414.38;2210075;39;113890;-54
2021/05/21 07:27:55;;;;;;;;;;;;;;;21.32;38.92;99407.13;2203265;39;113809;-53
2021/05/21 07:29:27;;;;;;;;;;;;;;;21.32;39.05;99409.94;2217469;39;113929;-54
2021/05/21 07:30:58;;;;;;;;;;;;;;;21.28;38.86;99405.00;2216284;39;114852;-54
2021/05/21 07:32:30;;;;;;;;;;;;;;;21.28;38.79;99413.44;2213672;39;114960;-54
2021/05/21 07:34:02;;;;;;;;;;;;;;;21.28;38.63;99421.06;2212112;39;114344;-54
2021/05/21 07:35:34;;;;;;;;;;;;;;;21.24;38.67;99420.13;2207659;39;115419;-54
2021/05/21 07:37:06;;;;;;;;;;;;;;;21.23;38.72;99410.03;2213259;39;115294;-54
2021/05/21 07:38:42;;;;;;;;;;;;;;;21.23;38.94;99407.22;2216128;39;115020;-54
2021/05/21 07:40:15;;;;;;;;;;;;;;;21.20;38.75;99419.19;2215915;39;114064;-54
2021/05/21 07:41:47;;;;;;;;;;;;;;;21.17;38.73;99414.25;2217008;39;114809;-54
2021/05/21 07:43:18;;;;;;;;;;;;;;;21.16;38.81;99407.84;2209916;39;114008;-54
2021/05/21 07:44:50;;;;;;;;;;;;;;;21.10;38.44;99403.56;2213172;39;114862;-54
2021/05/21 07:46:23;;;;;;;;;;;;;;;21.09;38.32;99406.72;2213678;39;114797;-54
2021/05/21 07:47:55;;;;;;;;;;;;;;;21.07;38.70;99407.09;2204117;39;114923;-54
2021/05/21 07:49:26;;;;;;;;;;;;;;;21.06;38.36;99405.44;2211374;39;114825;-54
2021/05/21 07:50:58;;;;;;;;;;;;;;;21.03;38.42;99414.53;2217299;39;114793;-55
2021/05/21 07:52:30;;;;;;;;;;;;;;;21.01;38.60;99411.28;2214626;39;115603;-54
2021/05/21 07:54:05;;;;;;;;;;;;;;;21.01;38.94;99416.91;2214929;39;115691;-54